createdAt,value
2018-11-07T00:00:47.759Z,15.50
2018-11-07T00:03:16.474Z,14.23
2018-11-07T00:05:44.949Z,15.20
2018-11-07T00:08:13.479Z,14.50
2018-11-07T00:10:41.789Z,13.80
2018-11-07T00:13:10.284Z,13.57
2018-11-07T00:15:38.689Z,13.47
2018-11-07T00:18:07.355Z,14.20
2018-11-07T00:20:35.767Z,14.53
2018-11-07T00:23:04.313Z,13.63
2018-11-07T00:25:32.762Z,13.60
2018-11-07T00:28:01.151Z,13.93
2018-11-07T00:30:29.617Z,13.80
2018-11-07T00:32:58.004Z,14.20
2018-11-07T00:35:26.612Z,14.17
2018-11-07T00:38:01.381Z,14.53
2018-11-07T00:40:29.834Z,13.90
2018-11-07T00:42:58.252Z,12.90
2018-11-07T00:45:26.652Z,13.00
2018-11-07T00:47:55.065Z,13.30
2018-11-07T00:50:23.459Z,13.30
2018-11-07T00:52:51.877Z,13.93
2018-11-07T00:55:20.278Z,15.23
2018-11-07T00:57:48.790Z,13.47
2018-11-07T01:00:20.420Z,14.23
2018-11-07T01:02:49.726Z,15.40
2018-11-07T01:05:18.174Z,14.80
2018-11-07T01:07:47.592Z,13.27
2018-11-07T01:10:16.057Z,14.00
2018-11-07T01:12:44.652Z,13.70
2018-11-07T01:15:13.561Z,14.60
2018-11-07T01:17:41.942Z,13.70
2018-11-07T01:20:11.852Z,14.00
2018-11-07T01:22:40.256Z,14.23
2018-11-07T01:25:09.425Z,13.90
2018-11-07T01:27:37.868Z,15.33
2018-11-07T01:30:08.565Z,14.33
2018-11-07T01:32:36.997Z,14.80
2018-11-07T01:35:05.929Z,14.10
2018-11-07T01:37:34.337Z,14.90
2018-11-07T01:40:02.790Z,14.90
2018-11-07T01:42:31.228Z,14.90
2018-11-07T01:44:59.640Z,14.90
2018-11-07T01:47:28.045Z,14.50
2018-11-07T01:49:56.419Z,14.70
2018-11-07T01:52:24.820Z,15.63
2018-11-07T01:54:53.333Z,16.20
2018-11-07T01:57:21.765Z,15.50
2018-11-07T01:59:50.168Z,15.90
2018-11-07T02:02:18.652Z,15.03
2018-11-07T02:04:47.026Z,16.53
2018-11-07T02:07:15.420Z,16.50
2018-11-07T02:09:43.840Z,15.30
2018-11-07T02:12:12.216Z,16.50
2018-11-07T02:14:40.606Z,15.37
2018-11-07T02:17:09.026Z,15.60
2018-11-07T02:19:37.516Z,14.83
2018-11-07T02:22:06.217Z,15.87
2018-11-07T02:24:34.591Z,16.47
2018-11-07T02:27:03.056Z,16.80
2018-11-07T02:29:31.476Z,15.50
2018-11-07T02:31:59.868Z,16.37
2018-11-07T02:34:29.148Z,17.33
2018-11-07T02:36:57.700Z,16.73
2018-11-07T02:39:26.033Z,16.13
2018-11-07T02:41:54.975Z,17.30
2018-11-07T02:44:23.349Z,17.80
2018-11-07T02:46:51.757Z,16.70
2018-11-07T02:49:20.144Z,14.93
2018-11-07T02:51:48.558Z,14.30
2018-11-07T02:54:16.961Z,14.40
2018-11-07T02:56:45.363Z,14.83
2018-11-07T02:59:13.797Z,16.07
2018-11-07T03:01:42.207Z,15.90
2018-11-07T03:04:10.586Z,15.00
2018-11-07T03:06:38.980Z,15.00
2018-11-07T03:09:09.145Z,15.33
2018-11-07T03:11:37.484Z,16.03
2018-11-07T03:14:06.636Z,16.07
2018-11-07T03:16:35.053Z,14.30
2018-11-07T03:19:03.481Z,14.50
2018-11-07T03:21:31.895Z,13.30
2018-11-07T03:24:00.278Z,14.00
2018-11-07T03:26:28.687Z,15.70
2018-11-07T03:28:57.196Z,14.80
2018-11-07T03:31:25.568Z,14.70
2018-11-07T03:33:54.478Z,13.90
2018-11-07T03:36:22.884Z,14.33
2018-11-07T03:38:51.289Z,14.03
2018-11-07T03:41:20.359Z,14.27
2018-11-07T03:43:48.928Z,15.13
2018-11-07T03:46:17.361Z,14.67
2018-11-07T03:48:45.788Z,13.57
2018-11-07T03:51:14.157Z,12.70
2018-11-07T03:53:42.565Z,12.90
2018-11-07T03:56:10.964Z,11.50
2018-11-07T03:58:39.440Z,11.70
2018-11-07T04:01:07.985Z,12.00
2018-11-07T04:03:38.414Z,10.30
2018-11-07T04:06:07.016Z,9.80
2018-11-07T04:08:35.405Z,10.43
2018-11-07T04:11:03.853Z,10.10
2018-11-07T04:13:32.276Z,9.70
2018-11-07T04:16:00.661Z,9.40
2018-11-07T04:18:29.041Z,9.10
2018-11-07T04:20:57.405Z,9.60
2018-11-07T04:23:25.833Z,8.20
2018-11-07T04:25:54.305Z,9.30
2018-11-07T04:28:22.704Z,8.50
2018-11-07T04:30:51.089Z,8.30
2018-11-07T04:33:19.524Z,9.17
2018-11-07T04:35:48.065Z,8.97
2018-11-07T04:38:16.474Z,9.20
2018-11-07T04:40:45.443Z,9.20
2018-11-07T04:43:13.839Z,8.40
2018-11-07T04:45:42.244Z,7.90
2018-11-07T04:48:10.621Z,8.33
2018-11-07T04:50:39.076Z,8.37
2018-11-07T04:53:07.516Z,7.53
2018-11-07T04:55:35.925Z,9.47
2018-11-07T04:58:04.329Z,8.20
2018-11-07T05:00:33.108Z,8.37
2018-11-07T05:03:01.509Z,7.40
2018-11-07T05:05:29.943Z,7.90
2018-11-07T05:07:58.362Z,8.57
2018-11-07T05:10:26.760Z,8.00
2018-11-07T05:12:55.170Z,8.00
2018-11-07T05:15:23.557Z,7.03
2018-11-07T05:17:51.975Z,7.07
2018-11-07T05:20:20.460Z,7.27
2018-11-07T05:22:48.855Z,6.70
2018-11-07T05:25:17.229Z,7.07
2018-11-07T05:27:45.663Z,6.30
2018-11-07T05:30:14.054Z,5.70
2018-11-07T05:32:42.456Z,6.30
2018-11-07T05:35:10.856Z,7.10
2018-11-07T05:37:39.257Z,7.13
2018-11-07T05:40:07.689Z,7.10
2018-11-07T05:42:36.072Z,7.20
2018-11-07T05:45:04.529Z,8.10
2018-11-07T05:47:32.932Z,7.90
2018-11-07T05:50:01.361Z,7.20
2018-11-07T05:52:29.744Z,7.73
2018-11-07T05:54:58.133Z,9.00
2018-11-07T05:57:26.535Z,7.47
2018-11-07T05:59:54.971Z,8.17
2018-11-07T06:02:23.405Z,8.07
2018-11-07T06:04:51.852Z,8.10
2018-11-07T06:07:20.325Z,8.40
2018-11-07T06:09:48.966Z,8.10
2018-11-07T06:12:17.348Z,8.30
2018-11-07T06:14:47.104Z,8.70
2018-11-07T06:17:15.749Z,7.40
2018-11-07T06:19:44.316Z,8.40
2018-11-07T06:22:12.740Z,7.27
2018-11-07T06:24:41.277Z,9.57
2018-11-07T06:27:09.668Z,9.53
2018-11-07T06:29:38.065Z,9.47
2018-11-07T06:32:06.555Z,9.67
2018-11-07T06:34:34.945Z,9.33
2018-11-07T06:37:03.316Z,9.90
2018-11-07T06:39:31.730Z,9.70
2018-11-07T06:42:00.164Z,9.10
2018-11-07T06:44:28.738Z,8.30
2018-11-07T06:46:57.130Z,8.83
2018-11-07T06:49:25.529Z,8.87
2018-11-07T06:51:54.001Z,9.30
2018-11-07T06:54:22.531Z,9.30
2018-11-07T06:56:50.918Z,7.93
2018-11-07T06:59:19.384Z,9.10
2018-11-07T07:01:48.405Z,8.43
2018-11-07T07:04:17.301Z,9.00
2018-11-07T07:06:45.669Z,7.90
2018-11-07T07:09:14.223Z,8.93
2018-11-07T07:11:43.088Z,7.90
2018-11-07T07:14:11.445Z,8.03
2018-11-07T07:16:39.928Z,8.97
2018-11-07T07:19:08.384Z,8.90
2018-11-07T07:21:36.810Z,8.87
2018-11-07T07:24:05.391Z,7.80
2018-11-07T07:26:34.661Z,7.90
2018-11-07T07:29:03.049Z,7.07
2018-11-07T07:31:31.472Z,7.80
2018-11-07T07:33:59.868Z,7.90
2018-11-07T07:36:28.256Z,7.83
2018-11-07T07:38:56.647Z,7.50
2018-11-07T07:41:25.045Z,7.03
2018-11-07T07:43:54.101Z,7.07
2018-11-07T07:46:22.477Z,8.27
2018-11-07T07:48:50.880Z,7.67
2018-11-07T07:51:19.309Z,6.80
2018-11-07T07:53:47.710Z,7.80
2018-11-07T07:56:16.146Z,5.60
2018-11-07T07:58:44.576Z,7.43
2018-11-07T08:01:12.956Z,6.20
2018-11-07T08:03:41.376Z,6.90
2018-11-07T08:06:09.805Z,7.10
2018-11-07T08:08:38.200Z,6.13
2018-11-07T08:11:06.753Z,6.27
2018-11-07T08:13:35.202Z,6.40
2018-11-07T08:16:03.637Z,6.53
2018-11-07T08:18:32.080Z,5.63
2018-11-07T08:21:00.540Z,5.47
2018-11-07T08:23:28.917Z,4.67
2018-11-07T08:25:57.296Z,5.43
2018-11-07T08:28:25.716Z,5.80
2018-11-07T08:30:54.190Z,6.37
2018-11-07T08:33:22.517Z,5.90
2018-11-07T08:35:50.957Z,5.87
2018-11-07T08:38:19.366Z,5.23
2018-11-07T08:40:47.738Z,6.10
2018-11-07T08:43:16.133Z,5.80
2018-11-07T08:45:44.533Z,5.50
2018-11-07T08:48:13.013Z,6.10
2018-11-07T08:50:41.350Z,4.70
2018-11-07T08:53:09.754Z,5.17
2018-11-07T08:55:38.134Z,5.30
2018-11-07T08:58:06.552Z,5.27
2018-11-07T09:00:35.555Z,5.00
2018-11-07T09:03:03.980Z,4.70
2018-11-07T09:05:32.417Z,4.90
2018-11-07T09:08:00.825Z,4.77
2018-11-07T09:10:29.216Z,4.60
2018-11-07T09:12:57.631Z,4.77
2018-11-07T09:15:26.620Z,4.47
2018-11-07T09:17:55.061Z,4.20
2018-11-07T09:20:24.320Z,4.20
2018-11-07T09:22:54.224Z,4.20
2018-11-07T09:25:22.725Z,3.70
2018-11-07T09:27:51.121Z,3.67
2018-11-07T09:30:22.844Z,3.50
2018-11-07T09:32:51.260Z,3.30
2018-11-07T09:35:20.437Z,3.60
2018-11-07T09:37:49.596Z,3.40
2018-11-07T09:40:19.436Z,3.80
2018-11-07T09:42:48.377Z,3.93
2018-11-07T09:45:18.324Z,3.97
2018-11-07T09:47:47.245Z,3.33
2018-11-07T09:50:16.440Z,3.40
2018-11-07T09:52:45.107Z,3.50
2018-11-07T09:55:15.025Z,3.13
2018-11-07T09:57:43.825Z,2.83
2018-11-07T10:00:14.946Z,2.97
2018-11-07T10:02:43.848Z,2.73
2018-11-07T10:05:12.964Z,3.10
2018-11-07T10:07:41.625Z,3.00
2018-11-07T10:10:13.500Z,3.50
2018-11-07T10:12:42.367Z,2.70
2018-11-07T10:15:11.387Z,2.90
2018-11-07T10:17:39.870Z,2.80
2018-11-07T10:20:19.503Z,2.90
2018-11-07T10:22:48.380Z,2.43
2018-11-07T10:25:17.058Z,2.70
2018-11-07T10:27:45.869Z,2.40
2018-11-07T10:30:16.833Z,3.23
2018-11-07T10:32:46.205Z,3.00
2018-11-07T10:35:14.637Z,2.77
2018-11-07T10:37:43.117Z,3.00
2018-11-07T10:40:15.030Z,3.47
2018-11-07T10:42:43.801Z,3.10
2018-11-07T10:45:12.684Z,3.03
2018-11-07T10:47:41.705Z,2.87
2018-11-07T10:50:11.740Z,3.17
2018-11-07T10:52:41.302Z,2.70
2018-11-07T10:55:10.520Z,2.80
2018-11-07T10:57:38.951Z,2.77
2018-11-07T11:00:15.790Z,2.30
2018-11-07T11:03:51.380Z,2.43
2018-11-07T11:06:19.790Z,2.50
2018-11-07T11:08:48.186Z,2.87
2018-11-07T11:11:17.222Z,2.73
2018-11-07T11:13:45.552Z,2.77
2018-11-07T11:16:13.989Z,3.00
2018-11-07T11:18:43.030Z,2.40
2018-11-07T11:21:11.421Z,3.20
2018-11-07T11:23:39.816Z,2.40
2018-11-07T11:26:08.192Z,2.43
2018-11-07T11:28:36.596Z,2.20
2018-11-07T11:31:05.185Z,2.70
2018-11-07T11:33:33.633Z,2.67
2018-11-07T11:36:02.025Z,2.73
2018-11-07T11:38:30.422Z,2.63
2018-11-07T11:40:58.827Z,3.17
2018-11-07T11:43:27.200Z,2.97
2018-11-07T11:45:55.725Z,2.70
2018-11-07T11:48:24.138Z,2.60
2018-11-07T11:50:53.049Z,2.30
2018-11-07T11:53:21.437Z,2.20
2018-11-07T11:55:49.832Z,1.67
2018-11-07T11:58:18.252Z,1.37
2018-11-07T12:00:46.620Z,1.90
2018-11-07T12:03:15.070Z,1.50
2018-11-07T12:05:43.468Z,1.40
2018-11-07T12:08:12.803Z,1.37
2018-11-07T12:10:41.188Z,1.30
2018-11-07T12:13:09.641Z,1.53
2018-11-07T12:15:38.016Z,1.30
2018-11-07T12:18:06.466Z,1.30
2018-11-07T12:20:34.873Z,1.20
2018-11-07T12:23:03.285Z,1.20
2018-11-07T12:25:31.694Z,1.40
2018-11-07T12:28:00.125Z,1.37
2018-11-07T12:30:28.534Z,1.20
2018-11-07T12:32:56.965Z,1.37
2018-11-07T12:35:25.377Z,1.27
2018-11-07T12:37:53.757Z,1.23
2018-11-07T12:40:22.174Z,1.43
2018-11-07T12:42:50.588Z,1.27
2018-11-07T12:45:18.996Z,1.07
2018-11-07T12:47:47.368Z,1.70
2018-11-07T12:50:18.312Z,1.30
2018-11-07T12:52:47.227Z,1.50
2018-11-07T12:55:16.073Z,1.40
2018-11-07T12:57:44.664Z,1.57
2018-11-07T13:00:17.688Z,1.50
2018-11-07T13:02:46.388Z,1.60
2018-11-07T13:05:16.258Z,1.30
2018-11-07T13:07:45.625Z,1.30
2018-11-07T13:10:15.472Z,1.10
2018-11-07T13:12:44.681Z,1.17
2018-11-07T13:15:13.565Z,1.43
2018-11-07T13:17:41.974Z,1.20
2018-11-07T13:20:13.811Z,1.30
2018-11-07T13:22:42.912Z,1.50
2018-11-07T13:25:12.291Z,1.80
2018-11-07T13:27:40.707Z,1.40
2018-11-07T13:30:14.492Z,1.70
2018-11-07T13:32:42.907Z,1.50
2018-11-07T13:35:12.263Z,1.50
2018-11-07T13:37:41.561Z,1.40
2018-11-07T13:40:15.129Z,1.43
2018-11-07T13:42:43.654Z,1.37
2018-11-07T13:45:14.418Z,1.40
2018-11-07T13:47:43.867Z,1.20
2018-11-07T13:50:13.065Z,1.47
2018-11-07T13:52:41.656Z,1.20
2018-11-07T13:55:11.137Z,1.63
2018-11-07T13:57:40.040Z,1.17
2018-11-07T14:00:11.498Z,1.47
2018-11-07T14:02:40.004Z,1.40
2018-11-07T14:05:09.361Z,1.30
2018-11-07T14:07:38.049Z,1.40
2018-11-07T14:10:08.596Z,1.47
2018-11-07T14:12:37.401Z,1.47
2018-11-07T14:15:07.758Z,1.33
2018-11-07T14:17:36.320Z,1.97
2018-11-07T14:20:05.474Z,1.30
2018-11-07T14:22:33.872Z,1.60
2018-11-07T14:25:02.604Z,1.03
2018-11-07T14:27:31.196Z,1.20
2018-11-07T14:29:59.813Z,1.27
2018-11-07T14:32:29.203Z,1.20
2018-11-07T14:34:57.665Z,1.23
2018-11-07T14:37:26.088Z,1.33
2018-11-07T14:39:54.566Z,1.60
2018-11-07T14:42:22.981Z,1.30
2018-11-07T14:44:51.411Z,1.20
2018-11-07T14:47:20.073Z,1.20
2018-11-07T14:49:48.442Z,1.30
2018-11-07T14:52:17.432Z,1.57
2018-11-07T14:54:45.849Z,1.50
2018-11-07T14:57:14.364Z,1.80
2018-11-07T14:59:42.788Z,1.23
2018-11-07T15:02:11.265Z,1.70
2018-11-07T15:04:39.684Z,1.80
2018-11-07T15:07:08.105Z,1.50
2018-11-07T15:09:36.498Z,1.73
2018-11-07T15:12:05.550Z,1.37
2018-11-07T15:14:34.533Z,1.50
2018-11-07T15:17:02.965Z,2.00
2018-11-07T15:19:31.389Z,1.73
2018-11-07T15:22:00.388Z,1.80
2018-11-07T15:24:28.780Z,1.67
2018-11-07T15:26:57.217Z,1.90
2018-11-07T15:29:25.668Z,2.07
2018-11-07T15:31:54.076Z,1.70
2018-11-07T15:34:22.508Z,1.70
2018-11-07T15:36:50.957Z,1.73
2018-11-07T15:39:19.437Z,1.70
2018-11-07T15:41:47.932Z,2.03
2018-11-07T15:44:16.400Z,2.37
2018-11-07T15:46:44.793Z,1.87
2018-11-07T15:49:14.711Z,1.80
2018-11-07T15:51:43.172Z,1.50
2018-11-07T15:54:11.660Z,2.10
2018-11-07T15:56:40.702Z,2.00
2018-11-07T15:59:09.113Z,1.83
2018-11-07T16:01:37.602Z,1.77
2018-11-07T16:04:06.040Z,2.20
2018-11-07T16:06:34.421Z,2.00
2018-11-07T16:09:03.470Z,2.10
2018-11-07T16:11:31.906Z,2.30
2018-11-07T16:14:00.401Z,2.10
2018-11-07T16:16:28.905Z,2.27
2018-11-07T16:18:57.456Z,2.67
2018-11-07T16:21:26.069Z,2.20
2018-11-07T16:23:55.172Z,2.60
2018-11-07T16:26:23.816Z,2.30
2018-11-07T16:28:52.394Z,2.33
2018-11-07T16:31:20.787Z,2.10
2018-11-07T16:33:49.221Z,2.00
2018-11-07T16:36:17.748Z,2.47
2018-11-07T16:38:46.169Z,2.80
2018-11-07T16:41:14.697Z,2.57
2018-11-07T16:43:43.110Z,2.80
2018-11-07T16:46:11.546Z,2.70
2018-11-07T16:48:39.981Z,3.20
2018-11-07T16:51:08.524Z,2.57
2018-11-07T16:53:36.916Z,2.97
2018-11-07T16:56:06.245Z,2.20
2018-11-07T16:58:34.647Z,1.83
2018-11-07T17:01:03.120Z,2.40
2018-11-07T17:03:31.648Z,2.13
2018-11-07T17:06:00.025Z,1.67
2018-11-07T17:08:28.430Z,1.70
2018-11-07T17:10:56.968Z,1.80
2018-11-07T17:13:25.441Z,1.73
2018-11-07T17:15:54.347Z,1.60
2018-11-07T17:18:22.755Z,1.63
2018-11-07T17:20:51.332Z,2.40
2018-11-07T17:23:19.598Z,1.23
2018-11-07T17:25:48.681Z,1.60
2018-11-07T17:28:17.150Z,2.13
2018-11-07T17:30:45.658Z,1.60
2018-11-07T17:33:14.070Z,1.80
2018-11-07T17:35:42.506Z,1.67
2018-11-07T17:38:11.097Z,1.60
2018-11-07T17:40:39.536Z,1.53
2018-11-07T17:43:08.521Z,1.70
2018-11-07T17:45:37.016Z,1.53
2018-11-07T17:48:05.629Z,1.80
2018-11-07T17:50:34.048Z,1.70
2018-11-07T17:53:02.473Z,2.10
2018-11-07T17:55:31.548Z,2.77
2018-11-07T17:58:00.665Z,2.50
2018-11-07T18:00:34.296Z,1.90
2018-11-07T18:03:02.874Z,2.37
2018-11-07T18:05:31.273Z,2.00
2018-11-07T18:07:59.762Z,2.27
2018-11-07T18:10:28.246Z,2.47
2018-11-07T18:12:56.725Z,2.40
2018-11-07T18:15:25.263Z,1.90
2018-11-07T18:17:53.776Z,2.00
2018-11-07T18:20:22.228Z,1.80
2018-11-07T18:22:51.516Z,1.83
2018-11-07T18:25:20.068Z,1.60
2018-11-07T18:27:48.602Z,1.80
2018-11-07T18:30:17.888Z,1.83
2018-11-07T18:32:47.234Z,2.37
2018-11-07T18:35:17.541Z,2.13
2018-11-07T18:37:46.305Z,2.77
2018-11-07T18:40:16.717Z,1.90
2018-11-07T18:42:45.147Z,2.00
2018-11-07T18:45:14.133Z,1.80
2018-11-07T18:47:45.426Z,1.80
2018-11-07T18:50:15.392Z,1.50
2018-11-07T18:52:44.037Z,1.70
2018-11-07T18:55:13.869Z,1.60
2018-11-07T18:57:43.024Z,1.87
2018-11-07T19:00:14.324Z,1.50
2018-11-07T19:02:43.498Z,1.70
2018-11-07T19:05:12.268Z,2.00
2018-11-07T19:07:40.990Z,2.00
2018-11-07T19:10:13.498Z,2.03
2018-11-07T19:12:42.483Z,2.07
2018-11-07T19:15:12.340Z,2.00
2018-11-07T19:17:41.981Z,1.83
2018-11-07T19:20:11.918Z,2.00
2018-11-07T19:22:41.801Z,1.83
2018-11-07T19:25:12.528Z,2.03
2018-11-07T19:27:41.064Z,1.87
2018-11-07T19:30:12.574Z,2.43
2018-11-07T19:32:41.425Z,1.90
2018-11-07T19:35:11.574Z,2.10
2018-11-07T19:37:40.728Z,2.00
2018-11-07T19:40:11.295Z,1.90
2018-11-07T19:42:40.085Z,2.07
2018-11-07T19:45:11.144Z,2.20
2018-11-07T19:47:39.977Z,2.30
2018-11-07T19:50:10.130Z,2.20
2018-11-07T19:52:39.020Z,1.80
2018-11-07T19:55:10.904Z,2.40
2018-11-07T19:57:39.710Z,2.30
2018-11-07T20:00:10.940Z,2.20
2018-11-07T20:02:39.356Z,2.43
2018-11-07T20:05:07.914Z,2.10
2018-11-07T20:07:37.321Z,2.70
2018-11-07T20:10:08.410Z,2.03
2018-11-07T20:12:37.715Z,2.40
2018-11-07T20:15:12.239Z,1.80
2018-11-07T20:17:40.660Z,1.97
2018-11-07T20:20:09.348Z,1.80
2018-11-07T20:22:37.809Z,1.90
2018-11-07T20:25:07.325Z,1.90
2018-11-07T20:27:35.788Z,2.10
2018-11-07T20:30:06.308Z,2.00
2018-11-07T20:32:34.752Z,1.77
2018-11-07T20:35:03.348Z,2.03
2018-11-07T20:37:31.760Z,1.97
2018-11-07T20:40:00.213Z,1.80
2018-11-07T20:42:29.457Z,2.00
2018-11-07T20:44:57.970Z,2.03
2018-11-07T20:47:26.449Z,2.10
2018-11-07T20:49:54.888Z,1.93
2018-11-07T20:52:23.281Z,2.33
2018-11-07T20:54:51.757Z,2.07
2018-11-07T20:57:20.164Z,2.03
2018-11-07T20:59:48.625Z,1.87
2018-11-07T21:02:17.107Z,1.80
2018-11-07T21:04:45.610Z,2.13
2018-11-07T21:07:14.080Z,2.20
2018-11-07T21:09:42.506Z,2.10
2018-11-07T21:12:10.941Z,2.17
2018-11-07T21:14:39.400Z,2.33
2018-11-07T21:17:07.854Z,2.53
2018-11-07T21:19:36.321Z,2.30
2018-11-07T21:22:07.002Z,2.23
2018-11-07T21:24:35.418Z,2.43
2018-11-07T21:27:03.913Z,2.27
2018-11-07T21:29:32.292Z,2.40
2018-11-07T21:32:00.723Z,2.10
2018-11-07T21:34:29.165Z,2.97
2018-11-07T21:36:57.613Z,2.00
2018-11-07T21:39:26.006Z,1.83
2018-11-07T21:41:54.497Z,2.00
2018-11-07T21:44:23.685Z,1.93
2018-11-07T21:46:52.143Z,2.20
2018-11-07T21:49:20.564Z,2.00
2018-11-07T21:51:49.007Z,2.27
2018-11-07T21:54:17.482Z,2.40
2018-11-07T21:56:45.909Z,2.93
2018-11-07T21:59:14.361Z,2.63
2018-11-07T22:01:43.407Z,2.63
2018-11-07T22:04:12.147Z,2.67
2018-11-07T22:06:41.542Z,3.10
2018-11-07T22:09:11.051Z,2.90
2018-11-07T22:11:39.638Z,3.30
2018-11-07T22:14:08.512Z,2.80
2018-11-07T22:16:37.620Z,2.90
2018-11-07T22:19:06.656Z,3.90
2018-11-07T22:21:35.288Z,3.27
2018-11-07T22:24:03.791Z,3.00
2018-11-07T22:26:32.142Z,3.03
2018-11-07T22:29:00.533Z,2.77
2018-11-07T22:31:29.010Z,2.80
2018-11-07T22:33:57.366Z,3.00
2018-11-07T22:36:25.748Z,2.97
2018-11-07T22:38:54.132Z,2.67
2018-11-07T22:41:22.612Z,2.80
2018-11-07T22:43:51.001Z,2.30
2018-11-07T22:46:19.437Z,2.73
2018-11-07T22:48:47.836Z,2.73
2018-11-07T22:51:16.452Z,2.80
2018-11-07T22:53:44.849Z,2.77
2018-11-07T22:56:13.262Z,2.70
2018-11-07T22:58:41.651Z,2.13
2018-11-07T23:01:15.310Z,2.83
2018-11-07T23:03:44.226Z,2.70
2018-11-07T23:06:12.580Z,2.47
2018-11-07T23:08:41.153Z,2.70
2018-11-07T23:11:09.549Z,2.87
2018-11-07T23:13:37.965Z,2.40
2018-11-07T23:16:06.379Z,2.93
2018-11-07T23:18:34.777Z,2.97
2018-11-07T23:21:03.185Z,3.23
2018-11-07T23:23:31.593Z,3.10
2018-11-07T23:25:59.996Z,3.10
2018-11-07T23:28:28.502Z,3.00
2018-11-07T23:30:56.917Z,3.10
2018-11-07T23:33:25.303Z,3.23
2018-11-07T23:35:53.720Z,3.70
2018-11-07T23:38:22.113Z,3.10
2018-11-07T23:40:50.507Z,2.90
2018-11-07T23:43:18.905Z,3.00
2018-11-07T23:45:47.357Z,2.93
2018-11-07T23:48:15.764Z,3.07
2018-11-07T23:50:44.157Z,3.27
2018-11-07T23:53:14.183Z,2.67
2018-11-07T23:55:43.910Z,3.00
2018-11-07T23:58:12.516Z,3.23
